Time;durP1;ratioP1;P1;durP2;ratioP2;P2;SDS_P1;SDS_P2;PMS_P1;PMS_P2;Temp;Humidity;BMP_temperature;BMP_pressure;BME280_temperature;BME280_humidity;BME280_pressure;Samples;Min_cycle;Max_cycle;Signal;HPM_P1;HPM_P2
2023/04/07 00:02:25;;;;;;;2.95;1.35;;;;;;;9.13;49.55;101063.56;5089173;28;20023;-58
2023/04/07 00:04:52;;;;;;;3.53;1.70;;;;;;;9.41;49.59;101060.97;5059343;28;20436;-54
2023/04/07 00:07:17;;;;;;;3.55;0.90;;;;;;;9.45;49.55;101061.88;5059462;28;20146;-52
2023/04/07 00:09:43;;;;;;;1.67;1.52;;;;;;;9.43;49.31;101064.13;5089840;28;20640;-56
2023/04/07 00:12:09;;;;;;;5.35;1.60;;;;;;;9.38;49.47;101062.47;5064896;28;20050;-54
2023/04/07 00:14:34;;;;;;;1.70;1.40;;;;;;;9.39;49.64;101061.31;5071459;28;20032;-57
2023/04/07 00:17:00;;;;;;;1.23;1.10;;;;;;;9.27;49.70;101055.19;5077677;28;20401;-52
2023/04/07 00:19:26;;;;;;;1.67;1.30;;;;;;;9.31;50.21;101062.22;5089404;28;20093;-51
2023/04/07 00:21:53;;;;;;;3.17;2.05;;;;;;;9.26;49.36;101061.66;5077252;28;20032;-51
2023/04/07 00:24:18;;;;;;;2.00;1.52;;;;;;;9.15;49.91;101068.59;5082443;28;20116;-53
2023/04/07 00:26:43;;;;;;;1.02;0.95;;;;;;;9.05;50.30;101057.19;5089258;28;20119;-54
2023/04/07 00:29:09;;;;;;;4.53;1.50;;;;;;;9.02;50.20;101065.91;5092082;28;20093;-56
2023/04/07 00:31:34;;;;;;;2.88;1.50;;;;;;;8.99;50.54;101071.16;5074186;28;20089;-53
2023/04/07 00:34:00;;;;;;;2.60;1.80;;;;;;;9.12;50.05;101061.22;5072964;28;20118;-50
2023/04/07 00:36:27;;;;;;;2.63;1.42;;;;;;;9.04;50.41;101063.66;5092438;28;20047;-52
2023/04/07 00:38:53;;;;;;;2.08;1.27;;;;;;;9.09;50.16;101059.97;5064343;28;20043;-51
2023/04/07 00:41:18;;;;;;;1.40;1.30;;;;;;;9.09;50.59;101066.16;5090738;28;20040;-56
2023/04/07 00:43:44;;;;;;;1.98;1.15;;;;;;;8.94;50.35;101055.25;5066571;28;20034;-53
2023/04/07 00:46:10;;;;;;;2.45;1.58;;;;;;;8.97;50.00;101060.75;5073219;28;20031;-52
2023/04/07 00:48:36;;;;;;;3.15;0.93;;;;;;;8.77;50.66;101058.13;5053228;28;20463;-54
2023/04/07 00:51:02;;;;;;;2.00;1.40;;;;;;;8.94;50.55;101058.72;5091665;28;20040;-56
2023/04/07 00:53:28;;;;;;;1.92;1.30;;;;;;;9.03;50.28;101054.03;5089386;28;20038;-56
2023/04/07 00:55:54;;;;;;;1.33;1.00;;;;;;;9.05;50.75;101054.50;5071042;28;20024;-59
2023/04/07 00:58:20;;;;;;;1.38;1.27;;;;;;;8.99;50.14;101060.41;5070049;28;20251;-55
2023/04/07 01:01:06;;;;;;;6.53;1.58;;;;;;;8.97;50.51;101055.38;5073447;28;20111;-55
2023/04/07 01:03:42;;;;;;;3.17;1.27;;;;;;;8.89;50.68;101061.63;5068874;28;20044;-56
2023/04/07 01:06:12;;;;;;;1.67;1.42;;;;;;;8.94;50.81;101057.94;5072426;28;20118;-51
2023/04/07 01:08:48;;;;;;;2.10;1.40;;;;;;;8.78;51.39;101055.13;5072410;28;20031;-58
2023/04/07 01:11:21;;;;;;;0.65;0.65;;;;;;;8.76;50.67;101051.19;5073028;28;20540;-54
2023/04/07 01:13:53;;;;;;;6.82;1.42;;;;;;;8.66;51.42;101060.44;5070132;28;20058;-52
2023/04/07 01:16:33;;;;;;;1.63;1.52;;;;;;;8.64;51.52;101059.19;5067585;28;20398;-54
2023/04/07 01:19:16;;;;;;;1.10;1.10;;;;;;;8.78;50.91;101055.13;5067938;28;20074;-56
2023/04/07 01:21:51;;;;;;;0.70;0.70;;;;;;;8.42;51.54;101056.91;5068347;28;20035;-56
2023/04/07 01:24:46;;;;;;;2.97;1.77;;;;;;;8.36;52.04;101061.69;5089006;28;20043;-57
2023/04/07 01:27:24;;;;;;;3.45;1.98;;;;;;;8.40;51.96;101049.16;5083576;28;20042;-58
2023/04/07 01:29:51;;;;;;;1.90;1.00;;;;;;;8.48;51.74;101056.34;5072372;28;20052;-56
2023/04/07 01:32:19;;;;;;;0.93;0.85;;;;;;;8.12;52.39;101054.28;5053473;28;20020;-58
2023/04/07 01:34:48;;;;;;;1.02;0.95;;;;;;;7.95;53.30;101053.63;5089464;28;20393;-56
2023/04/07 01:37:15;;;;;;;1.25;1.00;;;;;;;8.06;52.51;101046.75;5072205;28;20414;-58
2023/04/07 01:39:41;;;;;;;2.85;1.58;;;;;;;7.97;52.73;101049.53;5061361;28;20089;-56
2023/04/07 01:42:08;;;;;;;2.05;1.35;;;;;;;8.16;52.40;101047.16;5054203;28;20449;-58
2023/04/07 01:44:34;;;;;;;1.80;1.02;;;;;;;8.12;52.75;101048.13;5077850;28;20036;-57
2023/04/07 01:47:01;;;;;;;1.42;1.27;;;;;;;8.16;52.74;101054.41;5085024;28;20458;-59
2023/04/07 01:49:29;;;;;;;1.42;1.10;;;;;;;8.20;52.83;101055.34;5072198;28;20469;-53
2023/04/07 01:51:56;;;;;;;1.35;1.25;;;;;;;7.92;52.55;101048.91;5072275;28;20035;-58
2023/04/07 01:54:22;;;;;;;1.02;0.98;;;;;;;8.06;52.49;101050.22;5072002;28;20047;-54
2023/04/07 01:56:51;;;;;;;1.00;0.90;;;;;;;8.08;52.43;101050.69;5067344;28;20044;-55
2023/04/07 01:59:17;;;;;;;2.75;1.65;;;;;;;8.11;52.24;101047.34;5090433;28;20103;-53
2023/04/07 02:01:42;;;;;;;1.38;1.10;;;;;;;8.17;52.65;101045.25;5071883;28;20139;-53
2023/04/07 02:04:38;;;;;;;0.90;0.90;;;;;;;8.14;52.51;101049.38;5071494;28;20090;-51
2023/04/07 02:07:19;;;;;;;1.33;0.73;;;;;;;8.10;52.64;101053.84;5069028;28;20039;-53
2023/04/07 02:09:50;;;;;;;1.10;0.68;;;;;;;8.06;52.31;101049.44;5071959;28;20028;-56
2023/04/07 02:12:16;;;;;;;12.43;1.27;;;;;;;7.75;53.38;101051.72;5072035;28;20039;-51
2023/04/07 02:14:59;;;;;;;3.90;1.17;;;;;;;7.77;52.91;101052.97;5067124;28;20116;-56
2023/04/07 02:17:27;;;;;;;1.17;0.73;;;;;;;7.89;53.17;101054.94;5069447;28;20316;-55
2023/04/07 02:19:55;;;;;;;1.00;0.93;;;;;;;7.93;52.66;101050.50;5072114;28;20482;-54
2023/04/07 02:22:20;;;;;;;2.30;1.00;;;;;;;7.83;52.64;101046.31;5090261;28;20028;-53
2023/04/07 02:24:46;;;;;;;1.42;1.20;;;;;;;7.83;53.11;101050.88;5087399;28;20040;-52
2023/04/07 02:27:11;;;;;;;0.98;0.88;;;;;;;7.80;52.93;101054.22;5071841;28;20035;-56
2023/04/07 02:29:37;;;;;;;0.93;0.90;;;;;;;7.81;53.17;101053.88;5089746;28;20505;-50
2023/04/07 02:32:03;;;;;;;2.22;1.13;;;;;;;7.66;53.40;101051.78;5090208;28;20040;-51
2023/04/07 02:34:28;;;;;;;2.03;1.00;;;;;;;7.52;53.76;101056.59;5069291;28;20027;-51
2023/04/07 02:36:53;;;;;;;1.60;1.02;;;;;;;7.55;53.94;101061.28;5088861;28;20056;-56
2023/04/07 02:39:19;;;;;;;0.80;0.80;;;;;;;7.67;53.49;101055.22;5083877;28;21652;-52
2023/04/07 02:41:44;;;;;;;0.70;0.60;;;;;;;7.68;53.09;101067.53;5088940;28;20028;-50
2023/04/07 02:44:10;;;;;;;0.65;0.65;;;;;;;7.77;52.74;101062.91;5071287;28;20060;-55
2023/04/07 02:46:35;;;;;;;0.98;0.68;;;;;;;7.55;53.13;101066.66;5084580;28;20059;-50
2023/04/07 02:49:01;;;;;;;0.85;0.77;;;;;;;7.53;53.11;101065.44;5085960;28;20016;-50
2023/04/07 02:51:27;;;;;;;1.13;1.08;;;;;;;7.61;53.17;101061.88;5070833;28;20114;-50
2023/04/07 02:53:53;;;;;;;1.70;1.50;;;;;;;7.50;53.10;101069.53;5070062;28;20479;-50
2023/04/07 02:56:19;;;;;;;5.72;0.90;;;;;;;7.58;52.95;101065.22;5070806;28;20068;-53
2023/04/07 02:58:44;;;;;;;1.08;1.00;;;;;;;7.55;52.74;101060.53;5077163;28;20024;-53
2023/04/07 03:01:10;;;;;;;0.75;0.60;;;;;;;7.59;52.79;101056.84;5070423;28;20038;-51
2023/04/07 03:03:35;;;;;;;0.95;0.90;;;;;;;7.80;52.63;101063.03;5069928;28;20039;-52
2023/04/07 03:06:09;;;;;;;1.60;1.08;;;;;;;7.68;52.65;101064.84;5067599;28;20031;-54
2023/04/07 03:08:43;;;;;;;0.70;0.70;;;;;;;7.65;52.57;101060.13;5069074;28;20024;-58
2023/04/07 03:11:09;;;;;;;1.58;1.25;;;;;;;7.42;53.13;101062.31;5066016;28;20392;-57
2023/04/07 03:13:34;;;;;;;4.80;0.82;;;;;;;7.47;53.19;101061.34;5070836;28;20100;-53
2023/04/07 03:16:00;;;;;;;0.95;0.93;;;;;;;7.24;53.34;101050.91;5078692;28;20023;-51
2023/04/07 03:18:31;;;;;;;4.28;1.00;;;;;;;7.36;52.74;101060.94;5069079;28;20024;-54
2023/04/07 03:20:59;;;;;;;1.25;1.10;;;;;;;7.60;52.51;101052.28;5088979;28;20493;-57
2023/04/07 03:23:28;;;;;;;1.63;1.15;;;;;;;7.55;52.86;101063.22;5070794;28;20023;-56
2023/04/07 03:25:54;;;;;;;0.88;0.85;;;;;;;7.65;52.41;101063.59;5066523;28;20038;-53
2023/04/07 03:28:21;;;;;;;1.10;1.02;;;;;;;7.65;52.73;101065.50;5049002;28;20028;-53
2023/04/07 03:30:46;;;;;;;1.02;0.93;;;;;;;7.25;53.05;101063.19;5088234;28;20496;-53
2023/04/07 03:33:12;;;;;;;1.10;0.82;;;;;;;7.49;52.80;101062.59;5083556;28;20095;-57
2023/04/07 03:35:38;;;;;;;0.43;0.43;;;;;;;7.57;52.66;101059.06;5067366;28;20032;-53
2023/04/07 03:38:05;;;;;;;0.98;0.98;;;;;;;7.60;52.82;101068.38;5067446;28;20461;-57
2023/04/07 03:40:32;;;;;;;2.53;1.13;;;;;;;7.68;52.44;101062.97;5064991;28;20056;-56
2023/04/07 03:42:58;;;;;;;0.65;0.63;;;;;;;7.48;52.73;101070.94;5050341;22;20683;-46
2023/04/07 03:45:23;;;;;;;1.83;0.93;;;;;;;7.57;52.95;101066.34;5004011;28;20052;-48
2023/04/07 03:47:52;;;;;;;0.90;0.90;;;;;;;7.62;52.73;101077.66;5005234;28;20120;-51
2023/04/07 03:50:20;;;;;;;3.67;1.35;;;;;;;7.55;52.54;101071.25;5005455;28;20095;-47
2023/04/07 03:53:06;;;;;;;2.33;1.05;;;;;;;7.60;52.27;101077.19;5021145;28;20040;-47
2023/04/07 03:55:33;;;;;;;6.90;1.02;;;;;;;7.45;52.48;101075.09;5010522;28;20412;-47
2023/04/07 03:58:06;;;;;;;1.27;0.88;;;;;;;7.36;52.85;101077.00;5007952;28;20033;-49
2023/04/07 04:00:34;;;;;;;1.02;1.02;;;;;;;7.16;53.09;101086.53;5004858;28;20056;-50
2023/04/07 04:03:09;;;;;;;0.73;0.70;;;;;;;7.30;53.17;101079.06;4998751;28;20029;-49
2023/04/07 04:05:41;;;;;;;0.82;0.82;;;;;;;7.36;52.41;101089.59;5000587;28;20039;-57
2023/04/07 04:08:09;;;;;;;4.22;0.82;;;;;;;7.49;52.42;101085.94;5007623;28;20057;-49
2023/04/07 04:10:37;;;;;;;0.70;0.70;;;;;;;7.50;52.73;101082.13;5007187;28;20033;-54
2023/04/07 04:13:05;;;;;;;0.85;0.85;;;;;;;7.62;52.20;101092.94;5011612;28;20025;-53
2023/04/07 04:15:31;;;;;;;1.00;0.73;;;;;;;7.46;52.16;101091.91;5000334;28;20135;-52
2023/04/07 04:18:02;;;;;;;4.57;0.90;;;;;;;7.30;52.87;101103.19;5008277;28;20029;-49
2023/04/07 04:20:29;;;;;;;1.50;0.90;;;;;;;7.25;52.92;101106.06;5011228;28;20021;-51
2023/04/07 04:22:55;;;;;;;0.60;0.60;;;;;;;7.20;53.09;101105.44;5011628;28;20078;-48
2023/04/07 04:25:21;;;;;;;3.20;1.20;;;;;;;7.29;52.82;101106.97;5022465;28;20048;-51
2023/04/07 04:27:50;;;;;;;1.83;1.52;;;;;;;7.13;53.52;101113.16;5008701;28;20575;-53
2023/04/07 04:30:19;;;;;;;1.80;0.80;;;;;;;7.26;53.13;101101.47;5010374;28;20037;-46
2023/04/07 04:32:55;;;;;;;0.75;0.75;;;;;;;7.28;52.83;101107.28;5009975;28;20034;-47
2023/04/07 04:35:29;;;;;;;0.85;0.85;;;;;;;7.30;52.98;101103.19;5010719;28;20029;-49
2023/04/07 04:38:15;;;;;;;2.55;1.10;;;;;;;7.41;52.75;101113.53;4994710;28;20033;-47
2023/04/07 04:40:45;;;;;;;0.88;0.88;;;;;;;7.05;53.15;101116.66;5003697;28;20026;-49
2023/04/07 04:43:12;;;;;;;0.75;0.70;;;;;;;6.94;53.71;101115.44;5008738;28;20087;-49
2023/04/07 04:45:39;;;;;;;3.55;1.35;;;;;;;6.94;53.91;101124.25;5006927;28;20025;-53
2023/04/07 04:48:08;;;;;;;2.05;0.95;;;;;;;7.20;53.40;101119.59;5000550;28;20022;-52
2023/04/07 04:50:33;;;;;;;0.93;0.77;;;;;;;7.15;53.38;101127.81;5018029;28;20029;-52
2023/04/07 04:53:06;;;;;;;1.77;1.20;;;;;;;7.07;53.41;101123.25;4997185;28;20487;-50
2023/04/07 04:55:31;;;;;;;3.20;1.20;;;;;;;6.91;53.63;101127.53;5006211;28;20044;-53
2023/04/07 04:57:58;;;;;;;0.95;0.73;;;;;;;6.87;53.92;101131.97;5006996;28;20038;-50
2023/04/07 05:00:33;;;;;;;1.58;1.20;;;;;;;6.98;53.74;101135.09;5009400;28;20448;-48
2023/04/07 05:03:03;;;;;;;0.73;0.73;;;;;;;7.14;53.34;101138.84;5012549;28;20025;-48
2023/04/07 05:05:31;;;;;;;1.02;0.90;;;;;;;7.09;53.79;101139.00;5012886;28;20515;-53
2023/04/07 05:07:57;;;;;;;0.90;0.88;;;;;;;7.12;53.91;101139.16;5008470;28;20068;-51
2023/04/07 05:10:25;;;;;;;0.80;0.63;;;;;;;7.14;53.83;101146.88;5011210;28;20041;-49
2023/04/07 05:12:51;;;;;;;1.02;0.90;;;;;;;7.21;53.90;101136.47;5030370;28;20048;-49
2023/04/07 05:15:16;;;;;;;1.08;0.73;;;;;;;7.23;53.49;101144.97;5012780;28;20039;-50
2023/04/07 05:17:49;;;;;;;0.90;0.80;;;;;;;7.34;53.32;101153.44;4989881;28;20033;-46
2023/04/07 05:20:19;;;;;;;0.63;0.63;;;;;;;7.12;53.66;101149.09;5013623;28;20401;-47
2023/04/07 05:22:45;;;;;;;5.75;1.52;;;;;;;7.22;53.60;101162.91;5009496;28;20029;-50
2023/04/07 05:25:12;;;;;;;0.73;0.70;;;;;;;7.32;53.13;101159.09;5013336;28;20025;-52
2023/04/07 05:27:40;;;;;;;2.15;0.80;;;;;;;7.21;53.46;101160.56;5012406;28;20048;-55
2023/04/07 05:30:11;;;;;;;0.65;0.65;;;;;;;7.26;53.35;101163.06;5007273;28;20083;-51
2023/04/07 05:32:38;;;;;;;3.78;1.15;;;;;;;7.15;54.02;101168.00;5006232;28;20050;-48
2023/04/07 05:35:10;;;;;;;0.50;0.50;;;;;;;7.14;54.00;101165.63;5011632;28;20029;-47
2023/04/07 05:37:41;;;;;;;0.65;0.65;;;;;;;7.20;54.37;101167.03;5010636;28;20030;-54
2023/04/07 05:40:10;;;;;;;1.00;1.00;;;;;;;7.08;54.41;101167.66;5012303;28;20037;-47
2023/04/07 05:42:36;;;;;;;5.40;1.00;;;;;;;7.14;54.37;101173.66;5007357;28;20030;-47
2023/04/07 05:45:03;;;;;;;1.10;1.00;;;;;;;7.02;54.63;101166.28;5010879;28;20501;-47
2023/04/07 05:47:30;;;;;;;0.85;0.85;;;;;;;7.11;54.62;101169.72;5011840;28;20021;-51
2023/04/07 05:49:55;;;;;;;0.57;0.57;;;;;;;7.13;54.79;101174.75;5008307;28;20025;-52
2023/04/07 05:52:21;;;;;;;1.02;1.02;;;;;;;7.08;54.64;101175.69;5004638;28;20037;-52
2023/04/07 05:54:53;;;;;;;1.13;0.88;;;;;;;7.02;54.78;101174.31;5011190;28;20038;-54
2023/04/07 05:57:21;;;;;;;0.88;0.88;;;;;;;7.17;54.46;101175.69;5012342;28;20029;-50
2023/04/07 05:59:48;;;;;;;0.88;0.88;;;;;;;7.31;54.24;101178.97;4990091;28;20026;-54
2023/04/07 06:02:13;;;;;;;0.77;0.75;;;;;;;7.46;53.58;101191.06;5011782;28;20093;-51
2023/04/07 06:04:39;;;;;;;1.35;0.95;;;;;;;7.36;53.82;101199.44;5014754;28;20080;-47
2023/04/07 06:07:09;;;;;;;1.48;1.15;;;;;;;7.38;53.81;101197.22;5011945;28;20021;-50
2023/04/07 06:09:35;;;;;;;0.73;0.73;;;;;;;7.46;54.13;101191.84;5008108;28;20064;-48
2023/04/07 06:12:01;;;;;;;3.95;2.05;;;;;;;7.38;54.10;101192.66;5010970;28;20112;-53
2023/04/07 06:14:26;;;;;;;1.05;0.95;;;;;;;7.41;53.61;101205.44;5009632;28;20025;-50
2023/04/07 06:16:51;;;;;;;1.77;1.23;;;;;;;7.46;53.42;101191.06;5021103;28;21796;-49
2023/04/07 06:19:17;;;;;;;1.13;1.02;;;;;;;7.46;53.76;101205.25;5007698;28;20040;-48
2023/04/07 06:21:42;;;;;;;1.25;0.95;;;;;;;7.56;53.99;101198.75;5001979;28;20495;-51
2023/04/07 06:24:08;;;;;;;1.48;0.95;;;;;;;7.71;53.86;101214.28;5016575;28;20141;-51
2023/04/07 06:26:34;;;;;;;0.60;0.60;;;;;;;7.59;53.73;101214.19;5010556;28;20038;-47
2023/04/07 06:28:59;;;;;;;0.95;0.75;;;;;;;7.88;52.78;101216.91;5003042;28;20459;-48
2023/04/07 06:31:25;;;;;;;1.92;0.98;;;;;;;7.82;52.37;101215.53;4997544;28;20040;-52
2023/04/07 06:33:52;;;;;;;0.90;0.90;;;;;;;8.08;52.81;101222.34;5010955;28;20104;-51
2023/04/07 06:36:17;;;;;;;0.70;0.70;;;;;;;8.12;52.29;101223.28;5000710;28;20112;-54
2023/04/07 06:38:43;;;;;;;1.42;1.00;;;;;;;8.32;52.23;101235.19;5025382;28;20045;-47
2023/04/07 06:41:14;;;;;;;1.55;0.88;;;;;;;8.48;51.40;101228.13;5024123;28;20018;-48
2023/04/07 06:43:39;;;;;;;1.10;1.00;;;;;;;8.43;50.67;101236.38;5024460;28;20037;-51
2023/04/07 06:46:06;;;;;;;1.35;0.90;;;;;;;8.72;50.53;101239.00;5022359;28;20033;-56
2023/04/07 06:48:32;;;;;;;4.60;1.15;;;;;;;8.99;49.62;101238.47;5022170;28;20048;-51
2023/04/07 06:50:57;;;;;;;1.80;1.10;;;;;;;9.15;49.80;101240.56;5022635;28;20400;-50
2023/04/07 06:53:43;;;;;;;0.73;0.60;;;;;;;9.46;49.09;101244.34;5029669;28;20415;-52
2023/04/07 06:56:11;;;;;;;1.02;0.93;;;;;;;9.68;48.57;101243.16;4955766;28;20538;-49
2023/04/07 06:58:37;;;;;;;1.17;0.90;;;;;;;9.90;48.53;101237.38;4967477;28;20039;-52
2023/04/07 07:01:03;;;;;;;3.72;1.38;;;;;;;10.07;48.02;101244.41;4947475;28;20047;-50
2023/04/07 07:03:30;;;;;;;2.25;1.05;;;;;;;10.26;47.73;101247.38;4961665;28;20146;-50
2023/04/07 07:05:59;;;;;;;1.35;1.25;;;;;;;10.27;47.75;101238.97;4965812;28;20032;-47
2023/04/07 07:08:25;;;;;;;4.75;1.25;;;;;;;10.49;46.35;101246.56;4966608;28;20364;-53
2023/04/07 07:10:52;;;;;;;1.95;1.20;;;;;;;10.45;46.02;101245.66;4966761;28;20046;-50
2023/04/07 07:13:18;;;;;;;3.30;1.23;;;;;;;10.51;46.32;101259.69;4965471;28;20045;-51
2023/04/07 07:15:44;;;;;;;1.42;0.90;;;;;;;10.62;46.42;101248.13;4966112;28;20042;-49
2023/04/07 07:18:11;;;;;;;0.85;0.60;;;;;;;10.82;46.05;101249.84;4966996;28;20110;-47
2023/04/07 07:20:37;;;;;;;1.85;0.85;;;;;;;10.88;45.45;101247.69;4967447;28;20051;-55
2023/04/07 07:23:02;;;;;;;1.95;0.98;;;;;;;11.11;45.99;101254.13;4967140;28;20510;-47
2023/04/07 07:25:28;;;;;;;0.68;0.68;;;;;;;11.45;45.14;101258.13;4965886;28;20054;-54
2023/04/07 07:27:53;;;;;;;2.10;1.75;;;;;;;11.63;44.91;101260.16;4968104;28;20093;-51
2023/04/07 07:30:22;;;;;;;1.00;0.85;;;;;;;11.95;43.70;101261.00;4964078;28;20031;-50
2023/04/07 07:32:49;;;;;;;1.42;0.90;;;;;;;12.19;43.80;101260.81;4983441;28;20405;-48
2023/04/07 07:35:15;;;;;;;1.73;0.90;;;;;;;11.97;43.49;101264.13;5011441;28;20030;-47
2023/04/07 07:37:40;;;;;;;1.35;1.13;;;;;;;12.19;43.22;101268.13;5012163;28;20072;-54
2023/04/07 07:40:06;;;;;;;2.00;1.10;;;;;;;12.36;42.81;101271.25;5011928;28;20071;-51
2023/04/07 07:42:32;;;;;;;2.03;0.82;;;;;;;12.56;42.96;101272.84;5014899;28;20488;-48
2023/04/07 07:44:58;;;;;;;2.15;1.00;;;;;;;12.61;42.15;101275.28;5007379;28;20048;-47
2023/04/07 07:47:25;;;;;;;1.48;0.90;;;;;;;12.94;42.59;101274.03;5003084;28;20585;-48
2023/04/07 07:49:50;;;;;;;2.28;1.35;;;;;;;13.08;41.92;101283.28;5013518;28;20034;-56
2023/04/07 07:52:16;;;;;;;2.08;0.82;;;;;;;13.28;41.27;101292.94;5024934;28;20029;-47
2023/04/07 07:54:41;;;;;;;1.77;0.93;;;;;;;13.34;40.48;101291.50;5019013;28;20037;-48
2023/04/07 07:57:07;;;;;;;0.70;0.43;;;;;;;13.36;40.19;101293.84;5019415;28;20054;-49
2023/04/07 07:59:32;;;;;;;0.63;0.63;;;;;;;13.21;41.28;101289.31;5021882;28;20029;-51
2023/04/07 08:01:58;;;;;;;1.35;0.80;;;;;;;13.21;41.62;101286.59;5022053;28;20117;-53
2023/04/07 08:04:23;;;;;;;0.60;0.60;;;;;;;13.21;41.86;101298.22;5013773;28;20485;-46
2023/04/07 08:06:50;;;;;;;1.95;0.70;;;;;;;13.20;40.36;101293.16;5020611;28;20036;-49
2023/04/07 08:09:16;;;;;;;1.20;0.75;;;;;;;13.42;41.72;101303.25;5015089;28;20112;-51
2023/04/07 08:11:42;;;;;;;1.55;0.57;;;;;;;13.68;40.99;101299.88;5013015;28;20025;-50
2023/04/07 08:14:07;;;;;;;2.80;0.68;;;;;;;13.93;40.98;101307.31;5012746;28;20037;-49
2023/04/07 08:16:33;;;;;;;1.60;0.77;;;;;;;13.91;39.84;101309.59;5007987;28;20828;-51
2023/04/07 08:18:58;;;;;;;1.30;0.77;;;;;;;14.09;40.25;101302.53;5024826;28;20065;-48
2023/04/07 08:21:26;;;;;;;1.05;0.80;;;;;;;14.46;40.46;101311.66;5021272;28;20392;-47
2023/04/07 08:23:53;;;;;;;0.70;0.65;;;;;;;14.38;38.94;101309.22;5017519;28;20523;-54
2023/04/07 08:26:18;;;;;;;1.08;0.65;;;;;;;14.68;39.83;101314.69;5016460;28;20030;-46
2023/04/07 08:28:44;;;;;;;0.52;0.47;;;;;;;15.01;39.56;101306.63;5019021;28;20132;-49
2023/04/07 08:31:09;;;;;;;1.52;0.40;;;;;;;15.18;38.14;101311.47;5023230;28;20017;-53
2023/04/07 08:33:35;;;;;;;0.90;0.70;;;;;;;15.28;38.38;101308.13;5005969;28;20044;-48
2023/04/07 08:36:01;;;;;;;2.30;1.33;;;;;;;15.12;37.72;101299.38;4997066;28;20121;-49
2023/04/07 08:38:26;;;;;;;1.33;0.80;;;;;;;15.43;38.43;101306.41;5016558;28;20034;-50
2023/04/07 08:41:03;;;;;;;2.20;0.80;;;;;;;15.71;37.81;101310.19;5018180;28;20041;-53
2023/04/07 08:43:29;;;;;;;1.48;0.88;;;;;;;15.77;37.75;101310.63;5017562;28;20137;-49
2023/04/07 08:45:56;;;;;;;0.80;0.47;;;;;;;15.92;37.85;101309.59;5017955;28;20132;-50
2023/04/07 08:48:27;;;;;;;1.85;0.60;;;;;;;16.10;36.46;101324.91;5024684;28;20121;-49
2023/04/07 08:50:53;;;;;;;1.60;0.73;;;;;;;16.16;36.94;101314.47;5017110;28;20434;-51
2023/04/07 08:53:32;;;;;;;1.30;0.50;;;;;;;16.11;37.10;101318.31;5011423;28;20098;-50
2023/04/07 08:56:00;;;;;;;0.47;0.47;;;;;;;16.06;36.36;101318.66;5013090;28;20064;-55
2023/04/07 08:58:26;;;;;;;2.33;0.50;;;;;;;16.24;36.69;101324.22;5018969;28;20498;-48
2023/04/07 09:00:52;;;;;;;2.88;0.65;;;;;;;16.36;35.61;101320.44;5019230;28;20030;-49
2023/04/07 09:03:18;;;;;;;1.35;0.70;;;;;;;16.08;36.19;101319.09;5028867;28;20035;-49
2023/04/07 09:05:45;;;;;;;1.88;0.65;;;;;;;15.91;36.37;101311.53;5013413;28;20030;-46
2023/04/07 09:08:11;;;;;;;2.88;1.10;;;;;;;15.96;36.35;101329.44;5025126;28;20038;-49
2023/04/07 09:10:36;;;;;;;0.52;0.50;;;;;;;15.54;36.05;101310.78;5014784;28;20032;-48
2023/04/07 09:13:02;;;;;;;1.23;0.70;;;;;;;15.94;36.95;101318.94;5017572;28;20013;-49
2023/04/07 09:15:30;;;;;;;1.35;0.80;;;;;;;16.09;36.44;101317.13;4994004;28;20037;-51
2023/04/07 09:17:57;;;;;;;1.25;0.80;;;;;;;16.44;35.94;101322.84;5028636;28;20391;-48
2023/04/07 09:20:25;;;;;;;0.73;0.63;;;;;;;16.70;35.10;101321.88;5021415;28;20017;-51
2023/04/07 09:22:50;;;;;;;0.70;0.45;;;;;;;16.72;35.36;101317.63;5028664;28;20091;-50
2023/04/07 09:25:26;;;;;;;1.65;0.77;;;;;;;16.40;34.37;101315.81;5012091;28;20046;-51
2023/04/07 09:28:02;;;;;;;0.40;0.40;;;;;;;16.48;34.83;101322.88;4997755;28;20488;-49
2023/04/07 09:30:30;;;;;;;1.33;0.65;;;;;;;16.53;34.73;101315.16;5014034;28;20025;-52
2023/04/07 09:32:57;;;;;;;0.73;0.60;;;;;;;16.48;34.44;101314.72;5027020;28;20083;-53
2023/04/07 09:35:23;;;;;;;1.08;0.70;;;;;;;16.67;34.57;101317.19;5020712;28;20047;-54
2023/04/07 09:38:08;;;;;;;0.82;0.40;;;;;;;16.81;35.41;101312.63;5025991;28;20043;-51
2023/04/07 09:40:35;;;;;;;1.45;0.60;;;;;;;16.95;34.90;101312.72;5023769;28;20041;-51
2023/04/07 09:43:02;;;;;;;0.80;0.52;;;;;;;17.25;33.89;101317.88;5046589;22;20080;-58
2023/04/07 09:45:30;;;;;;;2.22;0.55;;;;;;;17.47;33.52;101319.53;5059562;28;20032;-61
2023/04/07 09:47:57;;;;;;;1.75;1.15;;;;;;;17.53;32.97;101312.56;5060021;28;20036;-59
2023/04/07 09:50:40;;;;;;;0.80;0.60;;;;;;;17.16;32.87;101309.28;5052660;28;20051;-61
2023/04/07 09:53:06;;;;;;;0.85;0.63;;;;;;;17.30;34.25;101314.81;5044727;28;20064;-59
2023/04/07 09:55:36;;;;;;;1.55;0.70;;;;;;;17.38;32.96;101310.16;5054924;28;20043;-60
2023/04/07 09:58:03;;;;;;;1.38;0.90;;;;;;;17.37;32.57;101306.66;5052199;28;20036;-58
2023/04/07 10:00:28;;;;;;;2.83;0.70;;;;;;;17.09;32.54;101315.47;5048674;28;20495;-59
2023/04/07 10:02:55;;;;;;;1.15;0.75;;;;;;;17.36;33.13;101305.09;5056235;28;20047;-60
2023/04/07 10:05:21;;;;;;;0.82;0.55;;;;;;;17.62;33.32;101312.19;5061682;28;20031;-59
2023/04/07 10:07:47;;;;;;;0.68;0.57;;;;;;;17.85;32.32;101307.16;5060763;28;20390;-60
2023/04/07 10:10:12;;;;;;;2.15;0.73;;;;;;;17.89;32.01;101308.72;5038349;28;20033;-59
2023/04/07 10:12:40;;;;;;;1.52;1.13;;;;;;;17.92;31.87;101318.84;5055560;28;20039;-57
2023/04/07 10:15:06;;;;;;;1.83;0.70;;;;;;;18.08;31.82;101317.72;5058986;28;20112;-59
2023/04/07 10:17:35;;;;;;;1.20;0.60;;;;;;;17.93;33.43;101317.69;5039335;28;20020;-57
2023/04/07 10:20:01;;;;;;;2.28;0.75;;;;;;;17.76;32.38;101304.84;5055155;28;20029;-59
2023/04/07 10:22:27;;;;;;;1.33;0.80;;;;;;;17.92;32.45;101305.22;5052037;28;20032;-54
2023/04/07 10:24:59;;;;;;;0.75;0.60;;;;;;;18.02;32.73;101307.19;5056131;28;20351;-54
2023/04/07 10:27:36;;;;;;;1.95;0.80;;;;;;;18.31;31.79;101316.13;5052189;28;20116;-57
2023/04/07 10:30:03;;;;;;;2.03;1.00;;;;;;;17.97;31.09;101310.31;5038053;28;20586;-51
2023/04/07 10:32:29;;;;;;;1.02;0.40;;;;;;;17.80;32.41;101310.28;5056079;28;20024;-57
2023/04/07 10:34:56;;;;;;;3.45;0.75;;;;;;;17.66;32.37;101300.13;5052830;28;20098;-52
2023/04/07 10:37:23;;;;;;;2.70;0.80;;;;;;;17.27;33.23;101296.50;5040945;28;20567;-55
2023/04/07 10:39:51;;;;;;;1.75;0.70;;;;;;;17.54;32.98;101297.78;5037426;28;20020;-49
2023/04/07 10:42:38;;;;;;;0.63;0.52;;;;;;;17.92;33.41;101304.47;5043622;28;20032;-49
2023/04/07 10:45:05;;;;;;;0.65;0.50;;;;;;;17.93;32.11;101309.53;5050109;28;20028;-53
2023/04/07 10:47:31;;;;;;;1.00;0.60;;;;;;;18.16;31.79;101316.53;5053057;28;20040;-58
2023/04/07 10:50:28;;;;;;;1.85;0.80;;;;;;;17.74;32.33;101311.81;5030166;28;20957;-49
2023/04/07 10:53:13;;;;;;;0.93;0.52;;;;;;;17.85;31.54;101315.34;5035351;28;20549;-49
2023/04/07 10:55:43;;;;;;;1.92;0.50;;;;;;;18.05;30.63;101322.00;5055642;28;20036;-51
2023/04/07 10:58:30;;;;;;;1.13;0.57;;;;;;;18.30;30.84;101311.88;5040966;28;20036;-53
2023/04/07 11:01:11;;;;;;;0.90;0.65;;;;;;;18.60;31.50;101314.22;5051984;28;20291;-48
2023/04/07 11:03:36;;;;;;;0.68;0.68;;;;;;;18.46;30.86;101314.22;5031988;28;20046;-56
2023/04/07 11:06:04;;;;;;;0.80;0.50;;;;;;;18.29;31.83;101313.00;5055447;28;20029;-51
2023/04/07 11:08:34;;;;;;;1.33;0.52;;;;;;;18.64;32.25;101320.44;5054763;28;20040;-53
2023/04/07 11:10:59;;;;;;;1.60;0.60;;;;;;;18.70;31.20;101318.84;5055771;28;20025;-51
2023/04/07 11:13:26;;;;;;;1.80;0.85;;;;;;;19.04;31.26;101311.75;5057282;28;21752;-57
2023/04/07 11:15:52;;;;;;;0.70;0.57;;;;;;;18.95;31.38;101305.91;5057794;28;20123;-55
2023/04/07 11:18:20;;;;;;;3.25;0.90;;;;;;;19.03;31.94;101314.88;5053356;28;20112;-59
2023/04/07 11:20:53;;;;;;;1.45;0.47;;;;;;;19.06;31.49;101312.13;5060249;28;20107;-54
2023/04/07 11:23:22;;;;;;;0.50;0.50;;;;;;;19.16;31.47;101313.25;5052767;28;20028;-48
2023/04/07 11:25:50;;;;;;;1.95;0.50;;;;;;;18.53;31.22;101312.25;5052985;28;20074;-55
2023/04/07 11:28:15;;;;;;;1.45;0.70;;;;;;;18.41;31.41;101314.56;5046539;28;20124;-55
2023/04/07 11:30:50;;;;;;;1.00;0.57;;;;;;;18.65;32.20;101305.59;5027713;28;20115;-60
2023/04/07 11:33:18;;;;;;;1.05;0.80;;;;;;;18.70;31.61;101297.78;5050255;28;20040;-56
2023/04/07 11:35:55;;;;;;;2.00;0.60;;;;;;;18.78;30.13;101306.75;5058524;28;20102;-63